Time,TemperatureF,DewpointF,PressureIn,WindDirection,WindDirectionDegrees,WindSpeedMPH,WindSpeedGustMPH,Humidity,HourlyPrecipIn,Conditions,Clouds,dailyrainin,SoftwareType,DateUTC
2013-03-08 00:01:00,20.6,19.6,30.47,NE,41,0.0,1.0,96,0.00,,,0.13,Wunderground v.1.15,2013-03-08 05:01:00,
2013-03-08 00:04:00,20.6,19.6,30.47,NE,40,1.0,1.0,96,0.00,,,0.13,Wunderground v.1.15,2013-03-08 05:04:00,
2013-03-08 00:10:00,20.6,19.6,30.47,NNE,33,1.0,1.0,96,0.00,,,0.00,Wunderground v.1.15,2013-03-08 05:10:00,
2013-03-08 00:16:00,20.6,19.6,30.47,North,357,1.0,1.0,96,0.00,,,0.00,Wunderground v.1.15,2013-03-08 05:16:00,
2013-03-08 00:20:00,20.6,19.6,30.47,North,4,1.0,1.0,96,0.00,,,0.00,Wunderground v.1.15,2013-03-08 05:20:00,
2013-03-08 00:26:00,20.6,19.6,30.47,NNE,23,1.0,2.0,96,0.00,,,0.00,Wunderground v.1.15,2013-03-08 05:26:00,
2013-03-08 00:32:00,20.6,19.6,30.46,NNW,345,1.0,1.0,96,0.00,,,0.00,Wunderground v.1.15,2013-03-08 05:32:00,
2013-03-08 00:38:00,20.5,19.5,30.46,NNW,346,0.0,1.0,96,0.00,,,0.00,Wunderground v.1.15,2013-03-08 05:38:00,
2013-03-08 00:44:00,20.5,19.5,30.45,SW,231,0.0,1.0,96,0.00,,,0.00,Wunderground v.1.15,2013-03-08 05:44:00,
2013-03-08 00:50:00,20.5,19.5,30.45,SW,231,0.0,1.0,96,0.00,,,0.00,Wunderground v.1.15,2013-03-08 05:50:00,
2013-03-08 00:55:00,20.3,19.1,30.46,SW,231,0.0,1.0,95,0.00,,,0.00,Wunderground v.1.15,2013-03-08 05:55:00,
2013-03-08 01:02:00,20.2,19.2,30.45,SSW,212,0.0,1.0,96,0.00,,,0.00,Wunderground v.1.15,2013-03-08 06:02:00,
2013-03-08 01:08:00,20.1,19.1,30.45,SSW,211,1.0,1.0,96,0.00,,,0.00,Wunderground v.1.15,2013-03-08 06:08:00,
2013-03-08 01:14:00,20.1,19.1,30.46,SSW,211,0.0,1.0,96,0.00,,,0.00,Wunderground v.1.15,2013-03-08 06:14:00,
2013-03-08 01:19:00,20.0,19.0,30.46,SSW,211,0.0,1.0,96,0.00,,,0.00,Wunderground v.1.15,2013-03-08 06:19:00,
2013-03-08 01:26:00,19.7,18.7,30.46,SSW,212,0.0,1.0,96,0.00,,,0.00,Wunderground v.1.15,2013-03-08 06:26:00,
2013-03-08 01:32:00,19.4,18.4,30.46,SSW,212,0.0,1.0,96,0.00,,,0.00,Wunderground v.1.15,2013-03-08 06:32:00,
2013-03-08 01:37:00,19.6,18.6,30.46,SSW,211,0.0,1.0,96,0.00,,,0.00,Wunderground v.1.15,2013-03-08 06:37:00,
2013-03-08 01:44:00,19.5,18.5,30.46,SSW,211,0.0,1.0,96,0.00,,,0.00,Wunderground v.1.15,2013-03-08 06:44:00,
2013-03-08 01:50:00,19.4,18.4,30.46,SSW,212,0.0,1.0,96,0.00,,,0.00,Wunderground v.1.15,2013-03-08 06:50:00,
2013-03-08 01:56:00,19.3,18.3,30.46,SSW,212,0.0,1.0,96,0.00,,,0.00,Wunderground v.1.15,2013-03-08 06:56:00,
2013-03-08 02:01:00,19.4,18.4,30.46,SSW,212,0.0,1.0,96,0.00,,,0.00,Wunderground v.1.15,2013-03-08 07:01:00,
2013-03-08 02:08:00,19.5,18.5,30.46,SSW,213,0.0,1.0,96,0.00,,,0.00,Wunderground v.1.15,2013-03-08 07:08:00,
2013-03-08 02:14:00,19.8,19.1,30.46,SW,223,0.0,1.0,97,0.00,,,0.00,Wunderground v.1.15,2013-03-08 07:14:00,
2013-03-08 02:20:00,19.7,18.7,30.46,SW,222,0.0,1.0,96,0.00,,,0.00,Wunderground v.1.15,2013-03-08 07:20:00,
2013-03-08 02:26:00,19.5,18.5,30.46,SW,222,0.0,1.0,96,0.00,,,0.00,Wunderground v.1.15,2013-03-08 07:26:00,
2013-03-08 02:32:00,19.4,18.4,30.46,SW,222,0.0,1.0,96,0.00,,,0.00,Wunderground v.1.15,2013-03-08 07:32:00,
2013-03-08 02:38:00,19.4,18.4,30.45,SSW,213,0.0,1.0,96,0.00,,,0.00,Wunderground v.1.15,2013-03-08 07:38:00,
2013-03-08 02:43:00,19.5,18.5,30.45,SW,218,0.0,1.0,96,0.00,,,0.00,Wunderground v.1.15,2013-03-08 07:43:00,
2013-03-08 02:50:00,19.4,18.4,30.45,SW,219,0.0,1.0,96,0.00,,,0.00,Wunderground v.1.15,2013-03-08 07:50:00,
2013-03-08 02:56:00,19.3,18.3,30.45,SW,221,0.0,1.0,96,0.00,,,0.00,Wunderground v.1.15,2013-03-08 07:56:00,
2013-03-08 03:02:00,19.3,18.3,30.45,SW,225,0.0,2.0,96,0.00,,,0.00,Wunderground v.1.15,2013-03-08 08:02:00,
2013-03-08 03:08:00,19.4,18.4,30.44,SW,228,1.0,2.0,96,0.00,,,0.00,Wunderground v.1.15,2013-03-08 08:08:00,
2013-03-08 03:14:00,19.4,18.4,30.44,NNE,31,1.0,1.0,96,0.00,,,0.00,Wunderground v.1.15,2013-03-08 08:14:00,
2013-03-08 03:20:00,19.3,18.3,30.44,NE,44,0.0,1.0,96,0.00,,,0.00,Wunderground v.1.15,2013-03-08 08:20:00,
2013-03-08 03:25:00,19.6,18.2,30.44,NW,326,0.0,1.0,94,0.00,,,0.00,Wunderground v.1.15,2013-03-08 08:25:00,
2013-03-08 03:32:00,21.0,16.4,30.44,North,5,0.0,1.0,82,0.00,,,0.00,Wunderground v.1.15,2013-03-08 08:32:00,
2013-03-08 03:38:00,24.1,8.1,30.44,North,7,0.0,1.0,50,0.00,,,0.00,Wunderground v.1.15,2013-03-08 08:38:00,
2013-03-08 03:44:00,26.5,1.2,30.44,North,350,1.0,3.0,33,0.00,,,0.00,Wunderground v.1.15,2013-03-08 08:44:00,
2013-03-08 03:50:00,27.5,2.1,30.45,North,6,1.0,1.0,33,0.00,,,0.00,Wunderground v.1.15,2013-03-08 08:50:00,
2013-03-08 03:56:00,24.5,18.9,30.45,SSW,211,0.0,1.0,79,0.00,,,0.00,Wunderground v.1.15,2013-03-08 08:56:00,
2013-03-08 04:02:00,21.7,18.4,30.45,SSW,211,1.0,2.0,87,0.00,,,0.00,Wunderground v.1.15,2013-03-08 09:02:00,
2013-03-08 04:07:00,20.4,18.2,30.45,SW,221,0.0,2.0,91,0.00,,,0.00,Wunderground v.1.15,2013-03-08 09:07:00,
2013-03-08 04:14:00,19.6,17.7,30.45,NE,37,0.0,1.0,92,0.00,,,0.00,Wunderground v.1.15,2013-03-08 09:14:00,
2013-03-08 04:20:00,20.0,13.0,30.45,SW,217,0.0,1.0,74,0.00,,,0.00,Wunderground v.1.15,2013-03-08 09:20:00,
2013-03-08 04:26:00,22.5,6.6,30.45,SW,233,0.0,1.0,50,0.00,,,0.00,Wunderground v.1.15,2013-03-08 09:26:00,
2013-03-08 04:31:00,25.3,3.2,30.45,WNW,283,0.0,1.0,38,0.00,,,0.00,Wunderground v.1.15,2013-03-08 09:31:00,
2013-03-08 04:38:00,26.9,-1.2,30.46,NNW,338,0.0,1.0,29,0.00,,,0.00,Wunderground v.1.15,2013-03-08 09:38:00,
2013-03-08 04:44:00,27.7,0.9,30.46,North,4,1.0,1.0,31,0.00,,,0.00,Wunderground v.1.15,2013-03-08 09:44:00,
2013-03-08 04:49:00,28.0,-1.0,30.46,NNE,13,1.0,1.0,28,0.00,,,0.00,Wunderground v.1.15,2013-03-08 09:49:00,
2013-03-08 04:56:00,28.6,-3.7,30.46,North,359,1.0,1.0,24,0.00,,,0.00,Wunderground v.1.15,2013-03-08 09:56:00,
2013-03-08 05:02:00,28.9,-2.6,30.46,NNE,12,1.0,2.0,25,0.00,,,0.00,Wunderground v.1.15,2013-03-08 10:02:00,
2013-03-08 05:08:00,29.0,-5.2,30.46,NE,49,1.0,2.0,22,0.00,,,0.00,Wunderground v.1.15,2013-03-08 10:08:00,
2013-03-08 05:13:00,29.0,-2.5,30.46,North,349,1.0,1.0,25,0.00,,,0.00,Wunderground v.1.15,2013-03-08 10:13:00,
2013-03-08 05:20:00,29.1,-4.2,30.46,WNW,296,1.0,1.0,23,0.00,,,0.00,Wunderground v.1.15,2013-03-08 10:20:00,
2013-03-08 05:26:00,29.1,-1.6,30.46,NNW,332,1.0,1.0,26,0.00,,,0.00,Wunderground v.1.15,2013-03-08 10:26:00,
2013-03-08 05:32:00,28.8,-0.3,30.46,WNW,300,0.0,1.0,28,0.00,,,0.00,Wunderground v.1.15,2013-03-08 10:32:00,
2013-03-08 05:38:00,28.8,-2.7,30.46,WSW,253,0.0,1.0,25,0.00,,,0.00,Wunderground v.1.15,2013-03-08 10:38:00,
2013-03-08 05:44:00,29.0,-1.7,30.46,East,81,1.0,2.0,26,0.00,,,0.00,Wunderground v.1.15,2013-03-08 10:44:00,
2013-03-08 05:50:00,29.3,-3.1,30.46,NNW,330,1.0,1.0,24,0.00,,,0.00,Wunderground v.1.15,2013-03-08 10:50:00,
2013-03-08 05:55:00,29.2,-3.2,30.46,West,273,1.0,1.0,24,0.00,,,0.00,Wunderground v.1.15,2013-03-08 10:55:00,
2013-03-08 06:02:00,29.4,-2.2,30.46,ENE,64,0.0,1.0,25,0.00,,,0.00,Wunderground v.1.15,2013-03-08 11:02:00,
2013-03-08 06:08:00,29.3,-3.1,30.47,NNE,13,0.0,1.0,24,0.00,,,0.00,Wunderground v.1.15,2013-03-08 11:08:00,
2013-03-08 06:14:00,29.6,-4.7,30.47,ENE,71,1.0,1.0,22,0.00,,,0.00,Wunderground v.1.15,2013-03-08 11:14:00,
2013-03-08 06:20:00,29.6,-2.8,30.47,NW,307,1.0,1.0,24,0.00,,,0.00,Wunderground v.1.15,2013-03-08 11:20:00,
2013-03-08 06:26:00,29.5,-2.1,30.47,North,358,1.0,1.0,25,0.00,,,0.00,Wunderground v.1.15,2013-03-08 11:26:00,
2013-03-08 06:32:00,29.5,0.3,30.48,West,263,1.0,1.0,28,0.00,,,0.00,Wunderground v.1.15,2013-03-08 11:32:00,
2013-03-08 06:37:00,29.5,-2.9,30.48,West,274,1.0,1.0,24,0.00,,,0.00,Wunderground v.1.15,2013-03-08 11:37:00,
2013-03-08 06:44:00,29.7,-3.7,30.48,West,271,1.0,2.0,23,0.00,,,0.00,Wunderground v.1.15,2013-03-08 11:44:00,
2013-03-08 06:50:00,29.4,-3.0,30.48,NW,311,1.0,1.0,24,0.00,,,0.00,Wunderground v.1.15,2013-03-08 11:50:00,
2013-03-08 06:56:00,29.3,-2.2,30.48,WNW,285,1.0,1.0,25,0.00,,,0.00,Wunderground v.1.15,2013-03-08 11:56:00,
2013-03-08 07:02:00,29.4,-2.2,30.48,WNW,293,1.0,1.0,25,0.00,,,0.00,Wunderground v.1.15,2013-03-08 12:02:00,
2013-03-08 07:08:00,29.6,-2.8,30.48,NE,48,1.0,1.0,24,0.00,,,0.00,Wunderground v.1.15,2013-03-08 12:08:00,
2013-03-08 07:14:00,30.4,-3.1,30.48,NNE,15,1.0,2.0,23,0.00,,,0.00,Wunderground v.1.15,2013-03-08 12:14:00,
2013-03-08 07:19:00,30.9,-3.6,30.48,NNE,13,1.0,1.0,22,0.00,,,0.00,Wunderground v.1.15,2013-03-08 12:19:00,
2013-03-08 07:26:00,31.2,-0.6,30.48,North,6,1.0,2.0,25,0.00,,,0.00,Wunderground v.1.15,2013-03-08 12:26:00,
2013-03-08 07:32:00,31.4,-0.4,30.48,NNE,12,1.0,1.0,25,0.00,,,0.00,Wunderground v.1.15,2013-03-08 12:32:00,
2013-03-08 07:38:00,31.7,2.3,30.48,NNE,24,2.0,2.0,28,0.00,,,0.00,Wunderground v.1.15,2013-03-08 12:38:00,
2013-03-08 07:44:00,32.0,2.5,30.48,NNE,26,2.0,2.0,28,0.00,,,0.00,Wunderground v.1.15,2013-03-08 12:44:00,
2013-03-08 07:50:00,32.6,3.0,30.48,NE,36,2.0,2.0,28,0.00,,,0.00,Wunderground v.1.15,2013-03-08 12:50:00,
2013-03-08 07:56:00,33.2,5.8,30.49,NE,53,2.0,2.0,31,0.00,,,0.00,Wunderground v.1.15,2013-03-08 12:56:00,
2013-03-08 08:02:00,33.7,5.5,30.49,NE,53,2.0,2.0,30,0.00,,,0.00,Wunderground v.1.15,2013-03-08 13:02:00,
2013-03-08 08:08:00,33.7,5.5,30.49,ENE,61,1.0,2.0,30,0.00,,,0.00,Wunderground v.1.15,2013-03-08 13:08:00,
2013-03-08 08:14:00,33.8,7.0,30.49,NE,39,1.0,3.0,32,0.00,,,0.00,Wunderground v.1.15,2013-03-08 13:14:00,
2013-03-08 08:20:00,33.9,8.4,30.49,NE,52,2.0,2.0,34,0.00,,,0.00,Wunderground v.1.15,2013-03-08 13:20:00,
2013-03-08 08:26:00,33.9,7.8,30.49,NE,36,2.0,2.0,33,0.00,,,0.00,Wunderground v.1.15,2013-03-08 13:26:00,
2013-03-08 08:32:00,33.9,3.4,30.50,NE,44,3.0,3.0,27,0.00,,,0.00,Wunderground v.1.15,2013-03-08 13:32:00,
2013-03-08 08:38:00,34.1,16.9,30.50,NE,53,2.0,4.0,49,0.00,,,0.00,Wunderground v.1.15,2013-03-08 13:38:00,
2013-03-08 08:44:00,33.5,13.4,30.50,NE,36,2.0,3.0,43,0.00,,,0.00,Wunderground v.1.15,2013-03-08 13:44:00,
2013-03-08 08:50:00,33.3,11.0,30.51,NE,56,2.0,3.0,39,0.00,,,0.00,Wunderground v.1.15,2013-03-08 13:50:00,
2013-03-08 08:56:00,33.6,11.8,30.50,NE,52,2.0,3.0,40,0.00,,,0.00,Wunderground v.1.15,2013-03-08 13:56:00,
2013-03-08 09:02:00,33.7,8.9,30.50,NE,51,2.0,2.0,35,0.00,,,0.00,Wunderground v.1.15,2013-03-08 14:02:00,
2013-03-08 09:08:00,33.9,7.8,30.50,NE,44,3.0,5.0,33,0.00,,,0.00,Wunderground v.1.15,2013-03-08 14:08:00,
2013-03-08 09:14:00,34.5,10.2,30.51,NE,43,3.0,4.0,36,0.00,,,0.00,Wunderground v.1.15,2013-03-08 14:14:00,
2013-03-08 09:20:00,34.4,10.8,30.50,East,94,3.0,3.0,37,0.00,,,0.00,Wunderground v.1.15,2013-03-08 14:20:00,
2013-03-08 09:26:00,34.3,11.9,30.51,NE,47,2.0,3.0,39,0.00,,,0.00,Wunderground v.1.15,2013-03-08 14:26:00,
2013-03-08 09:32:00,34.2,14.5,30.51,NE,53,2.0,2.0,44,0.00,,,0.00,Wunderground v.1.15,2013-03-08 14:32:00,
2013-03-08 09:38:00,33.9,14.8,30.51,NE,52,2.0,3.0,45,0.00,,,0.00,Wunderground v.1.15,2013-03-08 14:38:00,
2013-03-08 09:44:00,34.3,15.6,30.51,NE,53,2.0,2.0,46,0.00,,,0.00,Wunderground v.1.15,2013-03-08 14:44:00,
2013-03-08 09:50:00,34.1,14.4,30.51,NE,41,2.0,2.0,44,0.00,,,0.00,Wunderground v.1.15,2013-03-08 14:50:00,
2013-03-08 09:56:00,33.7,14.6,30.51,NE,46,2.0,3.0,45,0.00,,,0.00,Wunderground v.1.15,2013-03-08 14:56:00,
2013-03-08 10:02:00,34.1,14.4,30.51,NE,52,2.0,2.0,44,0.00,,,0.00,Wunderground v.1.15,2013-03-08 15:02:00,
2013-03-08 10:08:00,34.1,15.9,30.51,NE,37,2.0,2.0,47,0.00,,,0.00,Wunderground v.1.15,2013-03-08 15:08:00,
2013-03-08 10:14:00,33.9,15.8,30.52,NNE,24,2.0,4.0,47,0.00,,,0.00,Wunderground v.1.15,2013-03-08 15:14:00,
2013-03-08 10:20:00,34.8,16.6,30.52,NE,47,2.0,2.0,47,0.00,,,0.00,Wunderground v.1.15,2013-03-08 15:20:00,
2013-03-08 10:26:00,35.9,16.6,30.52,NE,39,2.0,2.0,45,0.00,,,0.00,Wunderground v.1.15,2013-03-08 15:26:00,
2013-03-08 10:32:00,36.2,16.4,30.52,ENE,58,2.0,2.0,44,0.00,,,0.00,Wunderground v.1.15,2013-03-08 15:32:00,
2013-03-08 10:38:00,36.8,14.1,30.51,NE,44,2.0,2.0,39,0.00,,,0.00,Wunderground v.1.15,2013-03-08 15:38:00,
2013-03-08 10:44:00,36.9,12.4,30.51,North,6,3.0,3.0,36,0.00,,,0.00,Wunderground v.1.15,2013-03-08 15:44:00,
2013-03-08 10:50:00,37.6,14.8,30.51,NE,51,3.0,4.0,39,0.00,,,0.00,Wunderground v.1.15,2013-03-08 15:50:00,
2013-03-08 10:56:00,38.1,12.2,30.51,NE,47,3.0,4.0,34,0.00,,,0.00,Wunderground v.1.15,2013-03-08 15:56:00,
2013-03-08 11:02:00,38.5,11.1,30.51,NE,37,3.0,3.0,32,0.00,,,0.00,Wunderground v.1.15,2013-03-08 16:02:00,
2013-03-08 11:07:00,39.0,14.9,30.51,NE,56,3.0,7.0,37,0.00,,,0.00,Wunderground v.1.15,2013-03-08 16:07:00,
2013-03-08 11:14:00,39.3,9.6,30.51,NE,34,3.0,4.0,29,0.00,,,0.00,Wunderground v.1.15,2013-03-08 16:14:00,
2013-03-08 11:20:00,39.1,11.7,30.51,NE,39,4.0,4.0,32,0.00,,,0.00,Wunderground v.1.15,2013-03-08 16:20:00,
2013-03-08 11:26:00,39.3,11.9,30.51,NE,51,4.0,8.0,32,0.00,,,0.00,Wunderground v.1.15,2013-03-08 16:26:00,
2013-03-08 11:32:00,39.5,9.8,30.50,North,360,4.0,4.0,29,0.00,,,0.00,Wunderground v.1.15,2013-03-08 16:32:00,
2013-03-08 11:38:00,39.9,13.8,30.50,NE,43,3.0,7.0,34,0.00,,,0.00,Wunderground v.1.15,2013-03-08 16:38:00,
2013-03-08 11:44:00,40.0,11.0,30.51,NE,41,4.0,4.0,30,0.00,,,0.00,Wunderground v.1.15,2013-03-08 16:44:00,
2013-03-08 11:49:00,40.4,11.4,30.50,NE,50,3.0,4.0,30,0.00,,,0.00,Wunderground v.1.15,2013-03-08 16:49:00,
2013-03-08 11:56:00,40.7,13.8,30.50,NE,36,3.0,5.0,33,0.00,,,0.00,Wunderground v.1.15,2013-03-08 16:56:00,
2013-03-08 12:02:00,40.9,11.8,30.50,NE,43,3.0,4.0,30,0.00,,,0.00,Wunderground v.1.15,2013-03-08 17:02:00,
2013-03-08 12:08:00,40.9,15.3,30.50,NE,44,3.0,5.0,35,0.00,,,0.00,Wunderground v.1.15,2013-03-08 17:08:00,
2013-03-08 12:14:00,40.3,12.0,30.50,NNE,20,4.0,5.0,31,0.00,,,0.00,Wunderground v.1.15,2013-03-08 17:14:00,
2013-03-08 12:20:00,40.2,13.3,30.50,NE,47,4.0,9.0,33,0.00,,,0.00,Wunderground v.1.15,2013-03-08 17:20:00,
2013-03-08 12:26:00,40.6,14.4,30.50,NE,38,3.0,9.0,34,0.00,,,0.00,Wunderground v.1.15,2013-03-08 17:26:00,
2013-03-08 12:32:00,40.8,15.2,30.50,NE,47,4.0,4.0,35,0.00,,,0.00,Wunderground v.1.15,2013-03-08 17:32:00,
2013-03-08 12:38:00,40.8,15.9,30.50,NE,49,3.0,4.0,36,0.00,,,0.00,Wunderground v.1.15,2013-03-08 17:38:00,
2013-03-08 12:44:00,40.6,13.7,30.50,NE,40,4.0,5.0,33,0.00,,,0.00,Wunderground v.1.15,2013-03-08 17:44:00,
2013-03-08 12:50:00,40.6,14.4,30.50,NE,50,4.0,5.0,34,0.00,,,0.00,Wunderground v.1.15,2013-03-08 17:50:00,
2013-03-08 12:56:00,40.8,15.9,30.49,NE,39,4.0,6.0,36,0.00,,,0.00,Wunderground v.1.15,2013-03-08 17:56:00,
2013-03-08 13:02:00,41.2,13.5,30.49,NNE,27,4.0,4.0,32,0.00,,,0.00,Wunderground v.1.15,2013-03-08 18:02:00,
2013-03-08 13:08:00,41.4,15.8,30.49,NE,47,3.0,4.0,35,0.00,,,0.00,Wunderground v.1.15,2013-03-08 18:08:00,
2013-03-08 13:14:00,41.4,13.7,30.48,NE,56,4.0,4.0,32,0.00,,,0.00,Wunderground v.1.15,2013-03-08 18:14:00,
2013-03-08 13:20:00,41.3,16.3,30.48,NNE,29,4.0,4.0,36,0.00,,,0.00,Wunderground v.1.15,2013-03-08 18:20:00,
2013-03-08 13:25:00,41.7,13.2,30.48,NNE,20,4.0,10.0,31,0.00,,,0.00,Wunderground v.1.15,2013-03-08 18:25:00,
2013-03-08 13:32:00,42.0,14.9,30.48,NNE,33,3.0,5.0,33,0.00,,,0.00,Wunderground v.1.15,2013-03-08 18:32:00,
2013-03-08 13:38:00,42.3,13.8,30.48,NE,36,3.0,5.0,31,0.00,,,0.00,Wunderground v.1.15,2013-03-08 18:38:00,
2013-03-08 13:43:00,41.9,11.9,30.48,NE,49,4.0,8.0,29,0.00,,,0.00,Wunderground v.1.15,2013-03-08 18:43:00,
2013-03-08 13:50:00,41.8,13.3,30.48,NE,54,4.0,4.0,31,0.00,,,0.00,Wunderground v.1.15,2013-03-08 18:50:00,
2013-03-08 13:56:00,42.0,14.2,30.48,NNE,23,3.0,6.0,32,0.00,,,0.00,Wunderground v.1.15,2013-03-08 18:56:00,
2013-03-08 14:02:00,41.9,12.7,30.48,ENE,62,3.0,3.0,30,0.00,,,0.00,Wunderground v.1.15,2013-03-08 19:02:00,
2013-03-08 14:07:00,42.3,13.0,30.48,NNE,33,3.0,3.0,30,0.00,,,0.00,Wunderground v.1.15,2013-03-08 19:07:00,
2013-03-08 14:14:00,42.3,13.0,30.48,NE,41,3.0,3.0,30,0.00,,,0.00,Wunderground v.1.15,2013-03-08 19:14:00,
2013-03-08 14:20:00,42.3,13.0,30.48,NE,41,2.0,2.0,30,0.00,,,0.00,Wunderground v.1.15,2013-03-08 19:20:00,
2013-03-08 14:25:00,42.4,9.0,30.48,NE,51,3.0,4.0,25,0.00,,,0.00,Wunderground v.1.15,2013-03-08 19:25:00,
2013-03-08 14:32:00,42.6,10.1,30.48,NE,38,3.0,3.0,26,0.00,,,0.00,Wunderground v.1.15,2013-03-08 19:32:00,
2013-03-08 14:38:00,42.7,6.4,30.48,NE,39,3.0,3.0,22,0.00,,,0.00,Wunderground v.1.15,2013-03-08 19:38:00,
2013-03-08 14:44:00,42.8,11.1,30.48,NE,46,3.0,4.0,27,0.00,,,0.00,Wunderground v.1.15,2013-03-08 19:44:00,
2013-03-08 14:49:00,42.7,7.4,30.47,NE,45,3.0,3.0,23,0.00,,,0.00,Wunderground v.1.15,2013-03-08 19:49:00,
2013-03-08 14:56:00,42.7,9.3,30.48,NNE,23,3.0,4.0,25,0.00,,,0.00,Wunderground v.1.15,2013-03-08 19:56:00,
2013-03-08 15:02:00,42.7,11.8,30.48,East,82,3.0,4.0,28,0.00,,,0.00,Wunderground v.1.15,2013-03-08 20:02:00,
2013-03-08 15:08:00,42.7,13.4,30.48,NNE,23,2.0,4.0,30,0.00,,,0.00,Wunderground v.1.15,2013-03-08 20:08:00,
2013-03-08 15:13:00,42.6,13.3,30.48,NNE,33,2.0,2.0,30,0.00,,,0.00,Wunderground v.1.15,2013-03-08 20:13:00,
2013-03-08 15:20:00,42.9,13.5,30.49,NE,43,2.0,2.0,30,0.00,,,0.00,Wunderground v.1.15,2013-03-08 20:20:00,
2013-03-08 15:26:00,42.6,14.8,30.48,NNE,18,2.0,3.0,32,0.00,,,0.00,Wunderground v.1.15,2013-03-08 20:26:00,
2013-03-08 15:32:00,42.5,14.7,30.48,NNE,19,2.0,3.0,32,0.00,,,0.00,Wunderground v.1.15,2013-03-08 20:32:00,
2013-03-08 15:37:00,42.6,14.8,30.47,NNE,16,2.0,4.0,32,0.00,,,0.00,Wunderground v.1.15,2013-03-08 20:37:00,
2013-03-08 15:44:00,42.3,17.2,30.47,NNE,25,2.0,4.0,36,0.00,,,0.00,Wunderground v.1.15,2013-03-08 20:44:00,
2013-03-08 15:50:00,42.0,17.6,30.47,NNE,29,3.0,3.0,37,0.00,,,0.00,Wunderground v.1.15,2013-03-08 20:50:00,
2013-03-08 15:56:00,41.7,17.9,30.47,NNE,29,3.0,4.0,38,0.00,,,0.00,Wunderground v.1.15,2013-03-08 20:56:00,
2013-03-08 16:02:00,41.0,19.6,30.47,NNE,23,3.0,3.0,42,0.00,,,0.00,Wunderground v.1.15,2013-03-08 21:02:00,
2013-03-08 16:08:00,40.4,19.1,30.46,NE,40,4.0,6.0,42,0.00,,,0.00,Wunderground v.1.15,2013-03-08 21:08:00,
2013-03-08 16:14:00,39.7,15.5,30.46,NE,43,3.0,4.0,37,0.00,,,0.00,Wunderground v.1.15,2013-03-08 21:14:00,
2013-03-08 16:20:00,39.3,15.2,30.46,ENE,57,3.0,3.0,37,0.00,,,0.00,Wunderground v.1.15,2013-03-08 21:20:00,
2013-03-08 16:25:00,39.0,16.1,30.46,NE,36,4.0,5.0,39,0.00,,,0.00,Wunderground v.1.15,2013-03-08 21:25:00,
2013-03-08 16:32:00,38.6,14.5,30.46,NNE,30,3.0,3.0,37,0.00,,,0.00,Wunderground v.1.15,2013-03-08 21:32:00,
2013-03-08 16:38:00,38.3,14.9,30.46,NE,34,3.0,5.0,38,0.00,,,0.00,Wunderground v.1.15,2013-03-08 21:38:00,
2013-03-08 16:44:00,38.1,15.9,30.46,NNE,18,3.0,5.0,40,0.00,,,0.00,Wunderground v.1.15,2013-03-08 21:44:00,
2013-03-08 16:49:00,37.9,13.9,30.46,North,11,3.0,4.0,37,0.00,,,0.00,Wunderground v.1.15,2013-03-08 21:49:00,
2013-03-08 16:56:00,37.7,11.8,30.46,NE,50,3.0,5.0,34,0.00,,,0.00,Wunderground v.1.15,2013-03-08 21:56:00,
2013-03-08 17:02:00,37.6,11.7,30.46,North,7,3.0,3.0,34,0.00,,,0.00,Wunderground v.1.15,2013-03-08 22:02:00,
2013-03-08 17:08:00,37.5,12.3,30.47,NE,56,3.0,3.0,35,0.00,,,0.00,Wunderground v.1.15,2013-03-08 22:08:00,
2013-03-08 17:13:00,37.4,14.1,30.47,NNE,29,2.0,2.0,38,0.00,,,0.00,Wunderground v.1.15,2013-03-08 22:13:00,
2013-03-08 17:20:00,37.3,13.4,30.47,NNE,19,2.0,2.0,37,0.00,,,0.00,Wunderground v.1.15,2013-03-08 22:20:00,
2013-03-08 17:26:00,37.0,13.7,30.48,NNE,30,2.0,3.0,38,0.00,,,0.00,Wunderground v.1.15,2013-03-08 22:26:00,
2013-03-08 17:32:00,36.8,14.1,30.47,NNE,16,2.0,2.0,39,0.00,,,0.00,Wunderground v.1.15,2013-03-08 22:32:00,
2013-03-08 17:37:00,36.7,14.0,30.47,NE,49,2.0,3.0,39,0.00,,,0.00,Wunderground v.1.15,2013-03-08 22:37:00,
2013-03-08 17:44:00,36.6,13.9,30.47,NNE,24,2.0,2.0,39,0.00,,,0.00,Wunderground v.1.15,2013-03-08 22:44:00,
2013-03-08 17:50:00,36.5,13.9,30.47,NNE,16,2.0,2.0,39,0.00,,,0.00,Wunderground v.1.15,2013-03-08 22:50:00,
2013-03-08 17:55:00,36.6,12.7,30.48,NNE,12,2.0,2.0,37,0.00,,,0.00,Wunderground v.1.15,2013-03-08 22:55:00,
2013-03-08 18:02:00,36.6,11.5,30.48,North,352,2.0,2.0,35,0.00,,,0.00,Wunderground v.1.15,2013-03-08 23:02:00,
2013-03-08 18:08:00,36.5,14.4,30.48,NW,321,1.0,2.0,40,0.00,,,0.00,Wunderground v.1.15,2013-03-08 23:08:00,
2013-03-08 18:14:00,35.9,13.9,30.48,WNW,294,0.0,1.0,40,0.00,,,0.00,Wunderground v.1.15,2013-03-08 23:14:00,
2013-03-08 18:19:00,35.4,13.4,30.48,WNW,292,0.0,1.0,40,0.00,,,0.00,Wunderground v.1.15,2013-03-08 23:19:00,
2013-03-08 18:26:00,35.4,12.3,30.48,NNW,338,1.0,1.0,38,0.00,,,0.00,Wunderground v.1.15,2013-03-08 23:26:00,
2013-03-08 18:32:00,35.3,12.2,30.48,North,352,1.0,1.0,38,0.00,,,0.00,Wunderground v.1.15,2013-03-08 23:32:00,
2013-03-08 18:37:00,35.0,13.1,30.48,North,360,1.0,1.0,40,0.00,,,0.00,Wunderground v.1.15,2013-03-08 23:37:00,
2013-03-08 18:44:00,35.0,14.2,30.48,WNW,291,1.0,1.0,42,0.00,,,0.00,Wunderground v.1.15,2013-03-08 23:44:00,
2013-03-08 18:50:00,35.1,14.8,30.48,NW,306,0.0,1.0,43,0.00,,,0.00,Wunderground v.1.15,2013-03-08 23:50:00,
2013-03-08 18:56:00,35.1,13.7,30.48,NW,306,0.0,1.0,41,0.00,,,0.00,Wunderground v.1.15,2013-03-08 23:56:00,
2013-03-08 19:01:00,35.2,14.4,30.49,NW,312,0.0,1.0,42,0.00,,,0.00,Wunderground v.1.15,2013-03-09 00:01:00,
2013-03-08 19:08:00,35.2,14.4,30.48,NW,311,0.0,1.0,42,0.00,,,0.00,Wunderground v.1.15,2013-03-09 00:08:00,
2013-03-08 19:14:00,35.2,14.9,30.49,WNW,290,0.0,1.0,43,0.00,,,0.00,Wunderground v.1.15,2013-03-09 00:14:00,
2013-03-08 19:20:00,35.4,14.6,30.49,SW,231,1.0,1.0,42,0.00,,,0.00,Wunderground v.1.15,2013-03-09 00:20:00,
2013-03-08 19:26:00,35.3,15.5,30.49,West,277,1.0,1.0,44,0.00,,,0.00,Wunderground v.1.15,2013-03-09 00:26:00,
2013-03-08 19:32:00,35.3,14.5,30.49,WSW,248,0.0,1.0,42,0.00,,,0.00,Wunderground v.1.15,2013-03-09 00:32:00,
2013-03-08 19:38:00,35.5,12.4,30.49,WSW,254,0.0,1.0,38,0.00,,,0.00,Wunderground v.1.15,2013-03-09 00:38:00,
2013-03-08 19:44:00,35.7,12.5,30.49,WSW,253,0.0,1.0,38,0.00,,,0.00,Wunderground v.1.15,2013-03-09 00:44:00,
2013-03-08 19:50:00,35.7,11.3,30.49,WSW,254,0.0,1.0,36,0.00,,,0.00,Wunderground v.1.15,2013-03-09 00:50:00,
2013-03-08 19:56:00,35.9,9.5,30.49,WSW,253,0.0,1.0,33,0.00,,,0.00,Wunderground v.1.15,2013-03-09 00:56:00,
2013-03-08 20:02:00,36.2,9.8,30.49,WSW,255,0.0,1.0,33,0.00,,,0.00,Wunderground v.1.15,2013-03-09 01:02:00,
2013-03-08 20:08:00,36.3,7.8,30.50,WSW,245,0.0,1.0,30,0.00,,,0.00,Wunderground v.1.15,2013-03-09 01:08:00,
2013-03-08 20:14:00,36.4,10.0,30.50,WSW,245,0.0,1.0,33,0.00,,,0.00,Wunderground v.1.15,2013-03-09 01:14:00,
2013-03-08 20:20:00,36.2,11.1,30.51,WSW,245,0.0,1.0,35,0.00,,,0.00,Wunderground v.1.15,2013-03-09 01:20:00,
2013-03-08 20:26:00,36.0,9.6,30.51,WSW,246,0.0,1.0,33,0.00,,,0.00,Wunderground v.1.15,2013-03-09 01:26:00,
2013-03-08 20:32:00,35.8,8.1,30.51,WSW,242,0.0,1.0,31,0.00,,,0.00,Wunderground v.1.15,2013-03-09 01:32:00,
2013-03-08 20:38:00,35.8,7.3,30.51,SW,226,0.0,1.0,30,0.00,,,0.00,Wunderground v.1.15,2013-03-09 01:38:00,
2013-03-08 20:44:00,35.8,7.3,30.51,SW,231,0.0,1.0,30,0.00,,,0.00,Wunderground v.1.15,2013-03-09 01:44:00,
2013-03-08 20:50:00,35.7,9.4,30.51,WSW,240,1.0,1.0,33,0.00,,,0.00,Wunderground v.1.15,2013-03-09 01:50:00,
2013-03-08 20:55:00,35.7,7.3,30.51,SSW,207,1.0,2.0,30,0.00,,,0.00,Wunderground v.1.15,2013-03-09 01:55:00,
2013-03-08 21:02:00,35.6,6.4,30.50,SSW,210,0.0,1.0,29,0.00,,,0.00,Wunderground v.1.15,2013-03-09 02:02:00,
2013-03-08 21:08:00,35.8,5.0,30.50,SW,215,0.0,1.0,27,0.00,,,0.00,Wunderground v.1.15,2013-03-09 02:08:00,
2013-03-08 21:14:00,36.1,5.3,30.50,SW,232,0.0,1.0,27,0.00,,,0.00,Wunderground v.1.15,2013-03-09 02:14:00,
2013-03-08 21:20:00,36.3,7.8,30.50,WSW,243,0.0,1.0,30,0.00,,,0.00,Wunderground v.1.15,2013-03-09 02:20:00,
2013-03-08 21:26:00,36.1,7.6,30.50,WNW,301,0.0,1.0,30,0.00,,,0.00,Wunderground v.1.15,2013-03-09 02:26:00,
2013-03-08 21:32:00,36.1,6.9,30.50,NNW,328,0.0,1.0,29,0.00,,,0.00,Wunderground v.1.15,2013-03-09 02:32:00,
2013-03-08 21:38:00,36.0,8.2,30.49,WNW,294,0.0,1.0,31,0.00,,,0.00,Wunderground v.1.15,2013-03-09 02:38:00,
2013-03-08 21:44:00,35.8,8.1,30.49,West,278,0.0,1.0,31,0.00,,,0.00,Wunderground v.1.15,2013-03-09 02:44:00,
2013-03-08 21:50:00,35.3,7.6,30.49,West,278,1.0,1.0,31,0.00,,,0.00,Wunderground v.1.15,2013-03-09 02:50:00,
2013-03-08 21:56:00,35.3,5.4,30.49,West,278,0.0,1.0,28,0.00,,,0.00,Wunderground v.1.15,2013-03-09 02:56:00,
2013-03-08 22:02:00,35.6,6.4,30.48,West,278,0.0,1.0,29,0.00,,,0.00,Wunderground v.1.15,2013-03-09 03:02:00,
2013-03-08 22:08:00,35.9,6.7,30.48,NW,312,0.0,1.0,29,0.00,,,0.00,Wunderground v.1.15,2013-03-09 03:08:00,
2013-03-08 22:14:00,36.1,5.3,30.48,NW,309,0.0,1.0,27,0.00,,,0.00,Wunderground v.1.15,2013-03-09 03:14:00,
2013-03-08 22:20:00,35.9,5.9,30.48,SW,232,0.0,1.0,28,0.00,,,0.00,Wunderground v.1.15,2013-03-09 03:20:00,
2013-03-08 22:26:00,35.5,5.6,30.48,SW,232,0.0,1.0,28,0.00,,,0.00,Wunderground v.1.15,2013-03-09 03:26:00,
2013-03-08 22:32:00,35.0,6.6,30.48,SW,226,0.0,1.0,30,0.00,,,0.00,Wunderground v.1.15,2013-03-09 03:32:00,
2013-03-08 22:38:00,34.4,8.9,30.48,SW,219,1.0,2.0,34,0.00,,,0.00,Wunderground v.1.15,2013-03-09 03:38:00,
2013-03-08 22:44:00,34.1,6.6,30.48,SSW,212,1.0,1.0,31,0.00,,,0.00,Wunderground v.1.15,2013-03-09 03:44:00,
2013-03-08 22:50:00,33.5,8.1,30.48,SSW,211,0.0,1.0,34,0.00,,,0.00,Wunderground v.1.15,2013-03-09 03:50:00,
2013-03-08 22:56:00,33.0,13.4,30.48,SW,219,1.0,1.0,44,0.00,,,0.00,Wunderground v.1.15,2013-03-09 03:56:00,
2013-03-08 23:02:00,32.5,12.5,30.48,SW,229,1.0,1.0,43,0.00,,,0.00,Wunderground v.1.15,2013-03-09 04:02:00,
2013-03-08 23:08:00,32.3,12.8,30.48,SW,228,1.0,1.0,44,0.00,,,0.00,Wunderground v.1.15,2013-03-09 04:08:00,
2013-03-08 23:14:00,32.2,10.0,30.48,SW,228,0.0,1.0,39,0.00,,,0.00,Wunderground v.1.15,2013-03-09 04:14:00,
2013-03-08 23:20:00,32.5,10.8,30.48,SW,224,1.0,1.0,40,0.00,,,0.00,Wunderground v.1.15,2013-03-09 04:20:00,
2013-03-08 23:26:00,32.7,5.3,30.48,SW,225,1.0,1.0,31,0.00,,,0.00,Wunderground v.1.15,2013-03-09 04:26:00,
2013-03-08 23:32:00,32.9,8.2,30.48,SW,225,1.0,1.0,35,0.00,,,0.00,Wunderground v.1.15,2013-03-09 04:32:00,
2013-03-08 23:38:00,33.3,11.5,30.48,SW,229,1.0,1.0,40,0.00,,,0.00,Wunderground v.1.15,2013-03-09 04:38:00,
2013-03-08 23:44:00,33.7,11.9,30.48,SW,232,1.0,1.0,40,0.00,,,0.00,Wunderground v.1.15,2013-03-09 04:44:00,
2013-03-08 23:50:00,34.3,9.4,30.48,SW,228,1.0,1.0,35,0.00,,,0.00,Wunderground v.1.15,2013-03-09 04:50:00,
2013-03-08 23:55:00,34.4,8.2,30.48,SW,227,0.0,1.0,33,0.00,,,0.00,Wunderground v.1.15,2013-03-09 04:55:00,